aviador You're here:

OMRK Decoded Metar

RAS AL KHAIMAH in UNITED ARAB EMIRATES
Report Time2017-07-27 22:00:00
UTC Time2017-07-27 22:54:13
Flight Rules vfr VFR
WindCalm
Visibility8000 m
Phenomena:N/A
Clouds:N/A
Expected CloudBase > 6,400 ft AGL from Temp-Dew spread
CeilingNone
Temp35°C (ISA +20)
Dew Point19°C (39% RH)
Heat Index36.9°C
QNH0998 hPa
Density Alt3,189 ft
Elevation102 ft
Report Wrong Elevation
Raw Report
METAR OMRK 272200Z 00000KT 8000 NSC 35/19 Q0998 A2949=

Extra information for OMRK:More info

Metar Taf Metar & Taf Last 4 Metars F.Rules Stats Wind Profile Meteogram Temp Stats Airport Information Weather charts Add Link Nearby VenuesMetar ALERT Operation Metar Decoded Social comments